Webkamera more information My webcam


Lynradar more information blitzortung!


Nedbørsradar more information rain snow radar



Nære METAR værraporter

   
ENGM - Oslo
Oppdatert: 23-09-2020 07:50
Overskyet  
Overskyet  
   Vind: Sør 5.1 m/s
Vind: Sør 5.1 m/s
Temperatur: 14°C
Duggpunkt: 12°C
Luftfuktighet: 88%
Barometer: 998 hPa
Skyer: Overskyet
Sikt: More than 10 km
Detaljer skyer: Overskyet 274.3 m
ENGM 230550Z 18010KT 9999 OVC009 14/12 Q0998 TEMPO SCT009 OVC012
ENTO - Sandefjord
Oppdatert: 23-09-2020 07:50
Dis, Overskyet  
Dis, Overskyet  
   Vind: SSV 4.6 m/s
Vind: SSV 4.6 m/s
Temperatur: 15°C
Duggpunkt: 15°C
Luftfuktighet: 100%
Barometer: 999 hPa
Skyer: Overskyet
Sikt: 4 km
Detaljer skyer: Overskyet 152.4 m
ENTO 230550Z 21009KT 3900 BR OVC005 15/15 Q0999 TEMPO 6000 OVC003
ENNO - Notodden
Oppdatert: 23-09-2020 07:50
Lett Regn, For det meste Overskyet  
Lett Regn, For det meste Overskyet  
   Vind: ØSØ 2.6 m/s
Vind: ØSØ 2.6 m/s
Temperatur: 15°C
Duggpunkt: 13°C
Luftfuktighet: 88%
Barometer: 997 hPa
Skyer: For det meste Overskyet
Sikt: 9 km
Detaljer skyer: Noen skyer 152.4 m,
For det meste Overskyet 548.6 m
ENNO 230550Z 12005KT 9000 -RA FEW005 BKN018 15/13 Q0997
ENRY - Rygge
Oppdatert: 23-09-2020 07:50
Dis, Overskyet  
Dis, Overskyet  
   Vind: Sør 4.6 m/s
Vind: Sør 4.6 m/s
Temperatur: 15°C
Duggpunkt: 14°C
Luftfuktighet: 94%
Barometer: 999 hPa
Skyer: Overskyet
Sikt: 4 km
Detaljer skyer: Overskyet 121.9 m
ENRY 230550Z AUTO 18009KT 3900NDV BR OVC004/// 15/14 Q0999 REDZ
ENSN - Skien
Oppdatert: 09-11-2015 09:50
Oppdatert, se klokkeslett
Klart  
Klart  
   Vind: SSV 5.1 m/s<br />Gust to 5.1 m/s
Vind: SSV 5.1 m/s
Gust to 5.1 m/s
Temperatur: 7°C
Wind Chill: 4°C
Duggpunkt: 3°C
Luftfuktighet: 76%
Barometer: 1000 hPa
Sikt: More than 10 km
Detaljer skyer: Klart
ENSN 090850Z 20010G22KT 150V240 CAVOK 07/03 Q1000
ENFG - Fagernes
Oppdatert: 22-04-2018 10:50
Oppdatert, se klokkeslett
Klart  
Klart  
   Vind: Sør 3.6 m/s
Vind: Sør 3.6 m/s
Temperatur: 6°C
Wind Chill: 3°C
Duggpunkt: -3°C
Luftfuktighet: 53%
Barometer: 1014 hPa
Sikt: More than 10 km
Detaljer skyer: Klart
ENFG 220850Z 19007KT CAVOK 06/M03 Q1014

Script utviklet av  Saratoga-weather.org Tilpasset for tamplaten av  Weerstation Leuven

Du finner min vær info også på:

European Weather Network